createdAt,value
2018-03-08T00:00:32.883Z,8.10
2018-03-08T00:01:32.940Z,6.00
2018-03-08T00:02:32.995Z,6.90
2018-03-08T00:03:33.061Z,8.90
2018-03-08T00:04:33.108Z,8.90
2018-03-08T00:05:33.164Z,7.30
2018-03-08T00:06:33.218Z,7.90
2018-03-08T00:07:33.273Z,6.80
2018-03-08T00:08:33.329Z,7.00
2018-03-08T00:09:33.387Z,7.60
2018-03-08T00:10:33.440Z,7.30
2018-03-08T00:11:33.497Z,8.70
2018-03-08T00:12:33.552Z,8.60
2018-03-08T00:13:33.608Z,6.60
2018-03-08T00:14:33.663Z,6.80
2018-03-08T00:15:33.718Z,8.20
2018-03-08T00:16:33.774Z,7.00
2018-03-08T00:17:33.830Z,9.10
2018-03-08T00:18:33.886Z,8.10
2018-03-08T00:19:33.941Z,9.20
2018-03-08T00:20:34.001Z,7.30
2018-03-08T00:21:34.051Z,8.80
2018-03-08T00:22:34.106Z,7.70
2018-03-08T00:23:34.165Z,7.60
2018-03-08T00:24:34.221Z,9.10
2018-03-08T00:25:34.273Z,9.30
2018-03-08T00:26:34.333Z,6.70
2018-03-08T00:27:34.383Z,8.30
2018-03-08T00:28:34.438Z,7.50
2018-03-08T00:29:34.494Z,7.70
2018-03-08T00:30:34.548Z,8.60
2018-03-08T00:31:34.755Z,7.80
2018-03-08T00:32:34.660Z,9.40
2018-03-08T00:33:34.716Z,9.80
2018-03-08T00:34:34.769Z,8.00
2018-03-08T00:35:34.848Z,7.90
2018-03-08T00:36:34.881Z,8.60
2018-03-08T00:37:34.937Z,9.10
2018-03-08T00:38:34.992Z,10.00
2018-03-08T00:39:35.046Z,8.60
2018-03-08T00:40:35.101Z,11.80
2018-03-08T00:41:35.158Z,11.70
2018-03-08T00:42:35.212Z,8.90
2018-03-08T00:43:35.267Z,7.40
2018-03-08T00:44:35.321Z,7.90
2018-03-08T00:45:35.377Z,9.70
2018-03-08T00:46:35.432Z,9.30
2018-03-08T00:47:35.487Z,9.40
2018-03-08T00:48:35.544Z,7.80
2018-03-08T00:49:35.600Z,8.40
2018-03-08T00:50:35.656Z,9.30
2018-03-08T00:51:35.707Z,7.50
2018-03-08T00:52:35.805Z,8.70
2018-03-08T00:53:35.817Z,9.00
2018-03-08T00:54:35.877Z,6.60
2018-03-08T00:55:35.928Z,7.90
2018-03-08T00:56:35.983Z,8.50
2018-03-08T00:57:36.038Z,8.30
2018-03-08T00:58:36.099Z,6.50
2018-03-08T00:59:36.147Z,7.80
2018-03-08T01:00:36.202Z,8.40
2018-03-08T01:01:36.258Z,9.10
2018-03-08T01:02:36.313Z,7.30
2018-03-08T01:03:36.368Z,8.30
2018-03-08T01:04:36.423Z,10.70
2018-03-08T01:05:36.477Z,8.80
2018-03-08T01:06:36.535Z,8.10
2018-03-08T01:07:36.587Z,6.60
2018-03-08T01:08:36.643Z,8.20
2018-03-08T01:09:36.697Z,10.00
2018-03-08T01:10:36.900Z,8.10
2018-03-08T01:11:36.806Z,7.30
2018-03-08T01:12:36.861Z,7.70
2018-03-08T01:13:36.915Z,7.90
2018-03-08T01:14:36.969Z,8.60
2018-03-08T01:15:37.028Z,7.20
2018-03-08T01:16:37.083Z,9.80
2018-03-08T01:17:37.134Z,9.40
2018-03-08T01:18:37.189Z,8.50
2018-03-08T01:19:37.245Z,8.90
2018-03-08T01:20:37.299Z,12.90
2018-03-08T01:21:37.352Z,8.10
2018-03-08T01:22:37.406Z,8.10
2018-03-08T01:23:37.462Z,8.70
2018-03-08T01:24:37.517Z,9.90
2018-03-08T01:25:37.571Z,7.00
2018-03-08T01:26:37.642Z,7.60
2018-03-08T01:27:37.679Z,8.50
2018-03-08T01:28:37.736Z,8.00
2018-03-08T01:29:37.788Z,7.80
2018-03-08T01:30:37.843Z,7.80
2018-03-08T01:31:37.898Z,8.40
2018-03-08T01:32:37.951Z,8.80
2018-03-08T01:33:38.006Z,9.20
2018-03-08T01:34:38.061Z,8.70
2018-03-08T01:35:38.120Z,7.20
2018-03-08T01:36:38.168Z,9.50
2018-03-08T01:37:38.224Z,7.60
2018-03-08T01:38:38.278Z,7.60
2018-03-08T01:39:38.332Z,9.00
2018-03-08T01:40:38.387Z,8.50
2018-03-08T01:41:38.443Z,8.80
2018-03-08T01:42:38.495Z,10.80
2018-03-08T01:43:38.698Z,6.60
2018-03-08T01:44:38.604Z,8.20
2018-03-08T01:45:38.658Z,8.80
2018-03-08T01:46:38.761Z,8.80
2018-03-08T01:47:38.765Z,9.50
2018-03-08T01:48:38.820Z,10.50
2018-03-08T01:49:38.874Z,10.40
2018-03-08T01:50:38.928Z,8.50
2018-03-08T01:51:38.982Z,7.00
2018-03-08T01:52:39.036Z,10.30
2018-03-08T01:53:39.092Z,9.70
2018-03-08T01:54:39.145Z,8.30
2018-03-08T01:55:39.199Z,9.70
2018-03-08T01:56:39.253Z,9.30
2018-03-08T01:57:39.307Z,7.90
2018-03-08T01:58:39.361Z,8.90
2018-03-08T01:59:39.415Z,11.00
2018-03-08T02:00:39.621Z,8.90
2018-03-08T02:01:39.524Z,7.60
2018-03-08T02:02:39.576Z,9.80
2018-03-08T02:03:39.632Z,9.30
2018-03-08T02:04:39.685Z,8.50
2018-03-08T02:05:39.741Z,8.40
2018-03-08T02:06:39.794Z,9.10
2018-03-08T02:07:39.848Z,7.60
2018-03-08T02:08:39.904Z,8.20
2018-03-08T02:09:39.956Z,7.50
2018-03-08T02:10:40.012Z,10.40
2018-03-08T02:11:40.066Z,7.40
2018-03-08T02:12:40.122Z,8.50
2018-03-08T02:13:40.174Z,6.70
2018-03-08T02:14:40.227Z,6.80
2018-03-08T02:15:40.283Z,8.40
2018-03-08T02:16:40.335Z,8.80
2018-03-08T02:17:40.391Z,9.50
2018-03-08T02:18:40.445Z,9.40
2018-03-08T02:19:40.498Z,11.90
2018-03-08T02:20:40.552Z,8.70
2018-03-08T02:21:40.620Z,7.60
2018-03-08T02:22:40.662Z,11.40
2018-03-08T02:23:40.716Z,7.40
2018-03-08T02:24:40.771Z,11.40
2018-03-08T02:25:40.825Z,7.40
2018-03-08T02:26:40.879Z,8.40
2018-03-08T02:27:40.931Z,9.00
2018-03-08T02:28:40.986Z,9.30
2018-03-08T02:29:41.041Z,7.90
2018-03-08T02:30:41.095Z,10.10
2018-03-08T02:31:41.152Z,7.50
2018-03-08T02:32:41.203Z,9.60
2018-03-08T02:33:41.257Z,6.90
2018-03-08T02:34:41.313Z,8.40
2018-03-08T02:35:41.615Z,8.30
2018-03-08T02:36:41.421Z,8.60
2018-03-08T02:37:41.475Z,11.40
2018-03-08T02:38:41.528Z,7.40
2018-03-08T02:39:41.582Z,8.30
2018-03-08T02:40:41.638Z,10.50
2018-03-08T02:41:41.693Z,8.90
2018-03-08T02:42:41.745Z,10.70
2018-03-08T02:43:41.798Z,8.40
2018-03-08T02:44:41.858Z,8.90
2018-03-08T02:45:41.916Z,9.40
2018-03-08T02:46:41.961Z,7.70
2018-03-08T02:47:42.019Z,8.40
2018-03-08T02:48:42.070Z,8.20
2018-03-08T02:49:42.125Z,9.20
2018-03-08T02:50:42.177Z,7.40
2018-03-08T02:51:42.234Z,9.00
2018-03-08T02:52:42.284Z,9.50
2018-03-08T02:53:42.339Z,10.00
2018-03-08T02:54:42.394Z,11.30
2018-03-08T02:55:42.448Z,10.60
2018-03-08T02:56:42.502Z,9.20
2018-03-08T02:57:42.557Z,9.70
2018-03-08T02:58:42.611Z,9.30
2018-03-08T02:59:42.669Z,9.90
2018-03-08T03:00:42.718Z,9.20
2018-03-08T03:01:42.778Z,7.90
2018-03-08T03:02:42.825Z,9.00
2018-03-08T03:03:42.880Z,7.90
2018-03-08T03:04:42.933Z,7.50
2018-03-08T03:05:42.989Z,7.10
2018-03-08T03:06:43.041Z,8.70
2018-03-08T03:07:43.096Z,7.50
2018-03-08T03:08:43.150Z,7.50
2018-03-08T03:09:43.205Z,7.40
2018-03-08T03:10:43.257Z,9.60
2018-03-08T03:11:43.313Z,8.40
2018-03-08T03:12:43.367Z,9.70
2018-03-08T03:13:43.423Z,8.30
2018-03-08T03:14:43.474Z,7.90
2018-03-08T03:15:43.678Z,10.30
2018-03-08T03:16:43.583Z,8.60
2018-03-08T03:17:43.636Z,8.60
2018-03-08T03:18:43.690Z,9.20
2018-03-08T03:19:43.745Z,8.90
2018-03-08T03:20:44.099Z,8.40
2018-03-08T03:21:43.852Z,10.50
2018-03-08T03:22:43.905Z,8.30
2018-03-08T03:23:43.959Z,9.30
2018-03-08T03:24:44.016Z,8.00
2018-03-08T03:25:44.068Z,8.70
2018-03-08T03:26:44.125Z,10.10
2018-03-08T03:27:44.176Z,9.10
2018-03-08T03:28:44.229Z,8.70
2018-03-08T03:29:44.286Z,7.20
2018-03-08T03:30:44.340Z,7.00
2018-03-08T03:31:44.392Z,8.70
2018-03-08T03:32:44.446Z,8.90
2018-03-08T03:33:44.500Z,6.20
2018-03-08T03:34:44.555Z,8.30
2018-03-08T03:35:44.608Z,10.40
2018-03-08T03:36:44.662Z,9.10
2018-03-08T03:37:44.866Z,9.40
2018-03-08T03:38:44.769Z,10.50
2018-03-08T03:39:44.824Z,10.00
2018-03-08T03:40:44.879Z,7.10
2018-03-08T03:41:44.932Z,10.20
2018-03-08T03:42:44.985Z,8.90
2018-03-08T03:43:45.289Z,7.30
2018-03-08T03:44:45.093Z,8.50
2018-03-08T03:45:45.147Z,7.30
2018-03-08T03:46:45.202Z,8.80
2018-03-08T03:47:45.258Z,8.40
2018-03-08T03:48:45.308Z,9.40
2018-03-08T03:49:45.363Z,9.50
2018-03-08T03:50:45.417Z,8.40
2018-03-08T03:51:45.471Z,8.20
2018-03-08T03:52:45.525Z,7.90
2018-03-08T03:53:45.580Z,7.70
2018-03-08T03:54:45.633Z,8.80
2018-03-08T03:55:45.686Z,8.20
2018-03-08T03:56:45.741Z,9.20
2018-03-08T03:57:45.795Z,9.70
2018-03-08T03:58:45.848Z,10.10
2018-03-08T03:59:45.907Z,9.60
2018-03-08T04:00:46.106Z,10.30
2018-03-08T04:01:46.010Z,7.90
2018-03-08T04:02:46.063Z,13.40
2018-03-08T04:03:46.117Z,12.40
2018-03-08T04:04:46.176Z,8.10
2018-03-08T04:05:46.227Z,9.00
2018-03-08T04:06:46.281Z,9.10
2018-03-08T04:07:46.334Z,9.90
2018-03-08T04:08:46.390Z,10.60
2018-03-08T04:09:46.444Z,8.60
2018-03-08T04:10:46.496Z,9.50
2018-03-08T04:11:46.562Z,11.00
2018-03-08T04:12:46.605Z,9.60
2018-03-08T04:13:46.660Z,12.10
2018-03-08T04:14:46.714Z,10.60
2018-03-08T04:15:46.768Z,11.70
2018-03-08T04:16:46.822Z,11.00
2018-03-08T04:17:49.582Z,10.90
2018-03-08T04:18:46.933Z,12.60
2018-03-08T04:19:46.986Z,12.70
2018-03-08T04:20:47.040Z,12.00
2018-03-08T04:21:47.096Z,12.70
2018-03-08T04:22:47.147Z,12.40
2018-03-08T04:23:47.202Z,13.70
2018-03-08T04:24:47.257Z,12.50
2018-03-08T04:25:47.312Z,12.20
2018-03-08T04:26:47.366Z,12.10
2018-03-08T04:27:47.430Z,12.70
2018-03-08T04:28:47.478Z,16.00
2018-03-08T04:29:47.531Z,13.80
2018-03-08T04:30:47.584Z,10.90
2018-03-08T04:31:47.639Z,11.70
2018-03-08T04:32:47.692Z,11.40
2018-03-08T04:33:47.748Z,11.40
2018-03-08T04:34:47.802Z,12.70
2018-03-08T04:35:47.860Z,11.60
2018-03-08T04:36:47.911Z,12.30
2018-03-08T04:37:47.967Z,12.60
2018-03-08T04:38:48.020Z,11.70
2018-03-08T04:39:48.080Z,11.80
2018-03-08T04:40:48.135Z,11.30
2018-03-08T04:41:48.336Z,11.60
2018-03-08T04:42:48.241Z,12.00
2018-03-08T04:43:48.295Z,13.60
2018-03-08T04:44:48.350Z,11.20
2018-03-08T04:45:48.407Z,11.00
2018-03-08T04:46:48.459Z,12.40
2018-03-08T04:47:48.516Z,13.00
2018-03-08T04:48:48.569Z,11.20
2018-03-08T04:49:48.626Z,11.90
2018-03-08T04:50:48.680Z,11.30
2018-03-08T04:51:48.735Z,10.70
2018-03-08T04:52:48.940Z,11.10
2018-03-08T04:53:48.846Z,10.50
2018-03-08T04:54:48.898Z,11.00
2018-03-08T04:55:48.956Z,10.80
2018-03-08T04:56:49.008Z,10.10
2018-03-08T04:57:49.064Z,13.90
2018-03-08T04:58:49.119Z,11.40
2018-03-08T04:59:49.174Z,11.50
2018-03-08T05:00:49.248Z,12.00
2018-03-08T05:01:49.284Z,12.80
2018-03-08T05:02:49.338Z,11.30
2018-03-08T05:03:49.393Z,10.80
2018-03-08T05:04:49.450Z,11.00
2018-03-08T05:05:49.504Z,13.00
2018-03-08T05:06:49.557Z,12.50
2018-03-08T05:07:49.614Z,12.80
2018-03-08T05:08:49.668Z,10.60
2018-03-08T05:09:49.722Z,14.30
2018-03-08T05:10:49.777Z,11.20
2018-03-08T05:11:49.833Z,13.00
2018-03-08T05:12:49.889Z,11.60
2018-03-08T05:13:49.944Z,12.40
2018-03-08T05:14:49.997Z,10.50
2018-03-08T05:15:50.053Z,12.80
2018-03-08T05:16:50.117Z,12.10
2018-03-08T05:17:50.163Z,12.00
2018-03-08T05:18:50.218Z,13.00
2018-03-08T05:19:50.273Z,12.40
2018-03-08T05:20:50.327Z,13.00
2018-03-08T05:21:50.383Z,11.30
2018-03-08T05:22:50.436Z,11.20
2018-03-08T05:23:50.494Z,11.90
2018-03-08T05:24:50.547Z,13.30
2018-03-08T05:25:50.602Z,11.90
2018-03-08T05:26:50.657Z,13.10
2018-03-08T05:27:50.730Z,14.60
2018-03-08T05:28:50.769Z,14.10
2018-03-08T05:29:50.823Z,12.80
2018-03-08T05:30:50.883Z,11.90
2018-03-08T05:31:50.932Z,14.50
2018-03-08T05:32:50.989Z,12.90
2018-03-08T05:33:51.046Z,16.30
2018-03-08T05:34:51.104Z,11.70
2018-03-08T05:35:51.153Z,11.80
2018-03-08T05:36:51.218Z,14.30
2018-03-08T05:37:51.263Z,12.50
2018-03-08T05:38:51.317Z,13.30
2018-03-08T05:39:51.372Z,12.90
2018-03-08T05:40:51.428Z,15.20
2018-03-08T05:41:51.483Z,13.40
2018-03-08T05:42:51.538Z,13.50
2018-03-08T05:43:51.593Z,14.80
2018-03-08T05:44:51.648Z,13.20
2018-03-08T05:45:51.703Z,13.00
2018-03-08T05:46:51.759Z,15.10
2018-03-08T05:47:51.816Z,13.30
2018-03-08T05:48:51.870Z,15.20
2018-03-08T05:49:51.925Z,14.60
2018-03-08T05:50:52.129Z,13.10
2018-03-08T05:51:52.038Z,12.80
2018-03-08T05:52:52.118Z,15.20
2018-03-08T05:53:52.146Z,14.70
2018-03-08T05:54:52.199Z,14.50
2018-03-08T05:55:52.254Z,14.30
2018-03-08T05:56:52.309Z,14.90
2018-03-08T05:57:52.366Z,15.30
2018-03-08T05:58:52.421Z,12.30
2018-03-08T05:59:52.476Z,14.00
2018-03-08T06:00:52.536Z,14.00
2018-03-08T06:01:52.588Z,13.90
2018-03-08T06:02:52.642Z,12.50
2018-03-08T06:03:52.696Z,15.00
2018-03-08T06:04:52.751Z,13.10
2018-03-08T06:05:52.811Z,12.20
2018-03-08T06:06:52.862Z,16.60
2018-03-08T06:07:52.920Z,14.70
2018-03-08T06:08:52.981Z,13.80
2018-03-08T06:09:53.029Z,13.30
2018-03-08T06:10:53.115Z,15.10
2018-03-08T06:11:53.143Z,13.60
2018-03-08T06:12:53.256Z,14.30
2018-03-08T06:13:53.249Z,15.20
2018-03-08T06:14:53.304Z,12.70
2018-03-08T06:15:53.359Z,13.80
2018-03-08T06:16:53.414Z,13.70
2018-03-08T06:17:53.472Z,13.40
2018-03-08T06:18:53.529Z,12.40
2018-03-08T06:19:53.609Z,13.90
2018-03-08T06:20:53.636Z,13.60
2018-03-08T06:21:53.692Z,13.80
2018-03-08T06:22:53.746Z,12.20
2018-03-08T06:23:53.801Z,12.40
2018-03-08T06:24:53.858Z,13.20
2018-03-08T06:25:53.914Z,13.00
2018-03-08T06:26:53.967Z,12.30
2018-03-08T06:27:54.035Z,12.80
2018-03-08T06:28:54.080Z,14.20
2018-03-08T06:29:54.133Z,13.20
2018-03-08T06:30:54.188Z,14.70
2018-03-08T06:31:54.245Z,12.50
2018-03-08T06:32:54.334Z,10.60
2018-03-08T06:33:54.356Z,12.20
2018-03-08T06:34:54.414Z,11.50
2018-03-08T06:35:54.467Z,10.20
2018-03-08T06:36:54.526Z,10.60
2018-03-08T06:37:54.578Z,10.10
2018-03-08T06:38:54.631Z,11.00
2018-03-08T06:39:54.688Z,9.80
2018-03-08T06:40:54.842Z,8.50
2018-03-08T06:41:54.799Z,10.40
2018-03-08T06:42:54.853Z,10.00
2018-03-08T06:43:54.909Z,9.80
2018-03-08T06:44:54.965Z,11.30
2018-03-08T06:45:55.021Z,9.00
2018-03-08T06:46:55.074Z,9.30
2018-03-08T06:47:55.282Z,8.70
2018-03-08T06:48:55.186Z,8.30
2018-03-08T06:49:55.243Z,11.70
2018-03-08T06:50:55.296Z,8.60
2018-03-08T06:51:55.353Z,10.00
2018-03-08T06:52:55.408Z,8.80
2018-03-08T06:53:55.468Z,9.90
2018-03-08T06:54:56.376Z,8.70
2018-03-08T06:55:55.576Z,10.00
2018-03-08T06:56:55.630Z,9.60
2018-03-08T06:57:55.685Z,9.80
2018-03-08T06:58:55.741Z,11.10
2018-03-08T06:59:55.798Z,10.80
2018-03-08T07:00:55.852Z,10.10
2018-03-08T07:01:55.907Z,10.80
2018-03-08T07:02:55.961Z,10.10
2018-03-08T07:03:56.018Z,10.10
2018-03-08T07:04:56.072Z,10.60
2018-03-08T07:05:56.132Z,9.20
2018-03-08T07:06:56.185Z,11.40
2018-03-08T07:07:56.239Z,10.70
2018-03-08T07:08:56.296Z,11.20
2018-03-08T07:09:56.502Z,10.20
2018-03-08T07:10:56.406Z,9.50
2018-03-08T07:11:56.462Z,8.10
2018-03-08T07:12:56.518Z,11.50
2018-03-08T07:13:56.574Z,10.10
2018-03-08T07:14:56.628Z,9.20
2018-03-08T07:15:56.685Z,10.10
2018-03-08T07:16:56.740Z,8.50
2018-03-08T07:17:56.796Z,9.80
2018-03-08T07:18:56.851Z,8.90
2018-03-08T07:19:56.908Z,10.50
2018-03-08T07:20:56.962Z,9.10
2018-03-08T07:21:57.019Z,11.30
2018-03-08T07:22:57.076Z,11.80
2018-03-08T07:23:57.131Z,10.70
2018-03-08T07:24:57.186Z,8.70
2018-03-08T07:25:57.242Z,12.00
2018-03-08T07:26:57.297Z,9.50
2018-03-08T07:27:57.357Z,9.60
2018-03-08T07:28:57.411Z,9.90
2018-03-08T07:29:57.470Z,11.50
2018-03-08T07:30:57.522Z,15.30
2018-03-08T07:31:57.578Z,9.60
2018-03-08T07:32:57.634Z,8.50
2018-03-08T07:33:57.690Z,8.00
2018-03-08T07:34:57.745Z,11.00
2018-03-08T07:35:57.801Z,9.00
2018-03-08T07:36:57.858Z,9.10
2018-03-08T07:37:57.913Z,8.80
2018-03-08T07:38:57.969Z,7.70
2018-03-08T07:39:58.028Z,9.00
2018-03-08T07:40:58.083Z,7.10
2018-03-08T07:41:58.168Z,9.90
2018-03-08T07:42:58.195Z,6.60
2018-03-08T07:43:58.252Z,7.60
2018-03-08T07:44:58.346Z,6.20
2018-03-08T07:45:58.364Z,7.00
2018-03-08T07:46:59.008Z,7.50
2018-03-08T07:47:58.474Z,6.00
2018-03-08T07:48:58.531Z,7.70
2018-03-08T07:49:58.587Z,9.20
2018-03-08T07:50:58.644Z,6.90
2018-03-08T07:51:58.699Z,6.50
2018-03-08T07:52:58.757Z,10.30
2018-03-08T07:53:58.814Z,8.00
2018-03-08T07:54:58.868Z,9.40
2018-03-08T07:55:58.926Z,9.80
2018-03-08T07:56:58.982Z,6.60
2018-03-08T07:57:59.039Z,6.80
2018-03-08T07:58:59.094Z,5.40
2018-03-08T07:59:59.154Z,8.70
2018-03-08T08:00:59.222Z,7.50
2018-03-08T08:01:59.276Z,10.20
2018-03-08T08:02:59.962Z,7.70
2018-03-08T08:03:59.376Z,6.40
2018-03-08T08:04:59.433Z,6.40
2018-03-08T08:05:59.492Z,6.70
2018-03-08T08:06:59.546Z,9.60
2018-03-08T08:07:59.602Z,7.80
2018-03-08T08:08:59.658Z,6.90
2018-03-08T08:09:59.755Z,6.70
2018-03-08T08:10:59.771Z,7.90
2018-03-08T08:11:59.827Z,8.70
2018-03-08T08:12:59.883Z,5.90
2018-03-08T08:13:59.941Z,6.20
2018-03-08T08:15:00.390Z,5.30
2018-03-08T08:16:00.055Z,6.80
2018-03-08T08:17:00.111Z,7.50
2018-03-08T08:18:00.167Z,6.20
2018-03-08T08:19:00.223Z,6.40
2018-03-08T08:20:00.280Z,5.80
2018-03-08T08:21:00.344Z,5.50
2018-03-08T08:22:00.394Z,4.60
2018-03-08T08:23:00.450Z,6.20
2018-03-08T08:24:00.510Z,6.40
2018-03-08T08:25:00.566Z,5.60
2018-03-08T08:26:00.670Z,5.90
2018-03-08T08:27:00.678Z,4.60
2018-03-08T08:28:00.737Z,7.30
2018-03-08T08:29:00.796Z,6.80
2018-03-08T08:30:00.853Z,5.30
2018-03-08T08:31:00.908Z,7.40
2018-03-08T08:32:00.965Z,5.10
2018-03-08T08:33:01.024Z,5.50
2018-03-08T08:34:01.083Z,5.10
2018-03-08T08:35:01.137Z,7.50
2018-03-08T08:36:01.195Z,6.40
2018-03-08T08:37:01.594Z,6.60
2018-03-08T08:38:01.312Z,4.90
2018-03-08T08:39:01.369Z,4.40
2018-03-08T08:40:01.426Z,3.60
2018-03-08T08:41:01.485Z,7.30
2018-03-08T08:42:01.543Z,4.30
2018-03-08T08:43:01.600Z,5.00
2018-03-08T08:44:01.659Z,5.80
2018-03-08T08:45:01.719Z,3.80
2018-03-08T08:46:01.775Z,3.30
2018-03-08T08:47:01.833Z,3.60
2018-03-08T08:48:01.891Z,3.40
2018-03-08T08:49:01.951Z,3.80
2018-03-08T08:50:02.008Z,5.10
2018-03-08T08:51:02.064Z,4.50
2018-03-08T08:52:02.121Z,3.30
2018-03-08T08:53:02.184Z,4.00
2018-03-08T08:54:02.238Z,5.40
2018-03-08T08:55:02.295Z,5.30
2018-03-08T08:56:02.355Z,4.50
2018-03-08T08:57:02.412Z,3.80
2018-03-08T08:58:02.470Z,3.40
2018-03-08T08:59:02.534Z,4.80
2018-03-08T09:00:02.584Z,5.30
2018-03-08T09:01:02.641Z,4.70
2018-03-08T09:02:02.699Z,6.10
2018-03-08T09:03:02.757Z,5.40
2018-03-08T09:04:02.815Z,4.90
2018-03-08T09:05:02.874Z,6.00
2018-03-08T09:06:02.932Z,4.10
2018-03-08T09:07:02.988Z,4.20
2018-03-08T09:08:03.049Z,2.80
2018-03-08T09:09:03.105Z,5.00
2018-03-08T09:10:03.163Z,3.30
2018-03-08T09:11:03.221Z,9.00
2018-03-08T09:12:03.280Z,4.90
2018-03-08T09:13:03.487Z,4.10
2018-03-08T09:14:03.396Z,4.40
2018-03-08T09:15:03.453Z,4.50
2018-03-08T09:16:03.511Z,4.50
2018-03-08T09:17:03.570Z,4.30
2018-03-08T09:18:03.627Z,2.50
2018-03-08T09:19:03.684Z,4.00
2018-03-08T09:20:03.743Z,3.70
2018-03-08T09:21:03.812Z,3.60
2018-03-08T09:22:03.859Z,5.20
2018-03-08T09:23:03.918Z,4.20
2018-03-08T09:24:03.977Z,5.10
2018-03-08T09:25:04.034Z,3.10
2018-03-08T09:26:04.726Z,5.30
2018-03-08T09:27:04.760Z,4.40
2018-03-08T09:28:04.925Z,3.90
2018-03-08T09:29:04.268Z,4.30
2018-03-08T09:30:04.331Z,6.10
2018-03-08T09:31:04.385Z,4.90
2018-03-08T09:32:04.443Z,3.60
2018-03-08T09:33:04.510Z,4.70
2018-03-08T09:34:04.563Z,4.30
2018-03-08T09:35:04.621Z,3.60
2018-03-08T09:36:04.679Z,4.40
2018-03-08T09:37:04.737Z,4.50
2018-03-08T09:38:04.796Z,7.30
2018-03-08T09:39:04.854Z,3.70
2018-03-08T09:40:04.912Z,4.90
2018-03-08T09:41:04.970Z,4.50
2018-03-08T09:42:05.180Z,5.60
2018-03-08T09:43:05.446Z,5.40
2018-03-08T09:44:05.186Z,4.90
2018-03-08T09:45:05.208Z,7.00
2018-03-08T09:46:05.270Z,5.60
2018-03-08T09:47:05.321Z,2.10
2018-03-08T09:48:05.380Z,9.50
2018-03-08T09:49:05.440Z,6.30
2018-03-08T09:50:05.499Z,3.50
2018-03-08T09:51:05.557Z,5.80
2018-03-08T09:52:05.621Z,4.20
2018-03-08T09:53:05.674Z,3.90
2018-03-08T09:54:05.733Z,5.60
2018-03-08T09:55:06.200Z,3.10
2018-03-08T09:56:05.850Z,3.90
2018-03-08T09:57:05.911Z,3.00
2018-03-08T09:58:05.970Z,6.90
2018-03-08T09:59:06.054Z,2.70
2018-03-08T10:00:06.106Z,7.00
2018-03-08T10:01:06.512Z,3.40
2018-03-08T10:02:06.204Z,4.70
2018-03-08T10:03:06.263Z,4.00
2018-03-08T10:04:06.323Z,3.50
2018-03-08T10:05:06.380Z,2.40
2018-03-08T10:06:06.439Z,3.60
2018-03-08T10:07:06.497Z,2.90
2018-03-08T10:08:06.556Z,4.90
2018-03-08T10:09:06.615Z,3.50
2018-03-08T10:10:06.675Z,4.40
2018-03-08T10:11:06.735Z,6.50
2018-03-08T10:12:06.805Z,4.30
2018-03-08T10:13:06.852Z,5.40
2018-03-08T10:14:06.944Z,5.50
2018-03-08T10:15:06.969Z,4.10
2018-03-08T10:16:07.028Z,6.00
2018-03-08T10:17:07.087Z,3.40
2018-03-08T10:18:07.145Z,4.80
2018-03-08T10:19:07.248Z,4.90
2018-03-08T10:20:07.262Z,2.60
2018-03-08T10:21:07.409Z,6.00
2018-03-08T10:22:07.381Z,3.20
2018-03-08T10:23:07.439Z,6.60
2018-03-08T10:24:07.499Z,2.90
2018-03-08T10:25:07.556Z,4.60
2018-03-08T10:26:07.626Z,5.20
2018-03-08T10:27:07.676Z,5.10
2018-03-08T10:28:07.735Z,3.10
2018-03-08T10:29:07.792Z,3.50
2018-03-08T10:30:07.909Z,3.90
2018-03-08T10:31:08.318Z,3.70
2018-03-08T10:32:07.998Z,2.60
2018-03-08T10:33:08.329Z,7.20
2018-03-08T10:34:08.087Z,4.60
2018-03-08T10:35:08.148Z,3.40
2018-03-08T10:36:08.322Z,3.50
2018-03-08T10:37:09.099Z,4.50
2018-03-08T10:38:09.125Z,5.20
2018-03-08T10:40:08.442Z,2.30
2018-03-08T10:41:08.522Z,2.80
2018-03-08T10:42:08.560Z,6.30
2018-03-08T10:43:08.619Z,3.20
2018-03-08T10:44:08.679Z,3.20
2018-03-08T10:45:09.235Z,5.70
2018-03-08T10:46:08.800Z,6.30
2018-03-08T10:47:08.856Z,4.20
2018-03-08T10:48:08.943Z,3.90
2018-03-08T10:49:08.981Z,6.10
2018-03-08T10:50:09.037Z,3.90
2018-03-08T10:51:09.094Z,3.20
2018-03-08T10:52:09.153Z,3.50
2018-03-08T10:53:09.214Z,1.80
2018-03-08T10:54:09.273Z,6.30
2018-03-08T10:55:09.382Z,3.40
2018-03-08T10:56:09.393Z,2.20
2018-03-08T10:57:09.452Z,2.70
2018-03-08T10:58:09.511Z,1.70
2018-03-08T10:59:09.571Z,5.00
2018-03-08T11:00:09.629Z,7.80
2018-03-08T11:01:09.688Z,2.80
2018-03-08T11:02:09.748Z,3.20
2018-03-08T11:03:09.820Z,3.70
2018-03-08T11:04:09.869Z,3.50
2018-03-08T11:05:10.595Z,3.90
2018-03-08T11:06:10.767Z,2.80
2018-03-08T11:07:10.580Z,1.50
2018-03-08T11:08:10.733Z,3.40
2018-03-08T11:09:10.165Z,3.30
2018-03-08T11:10:10.227Z,3.60
2018-03-08T11:11:10.284Z,1.90
2018-03-08T11:12:10.345Z,1.70
2018-03-08T11:13:10.405Z,1.80
2018-03-08T11:14:10.951Z,4.70
2018-03-08T11:15:11.223Z,5.50
2018-03-08T11:16:10.586Z,3.60
2018-03-08T11:17:10.645Z,3.10
2018-03-08T11:18:10.900Z,2.70
2018-03-08T11:19:10.763Z,3.50
2018-03-08T11:20:10.822Z,2.70
2018-03-08T11:21:10.883Z,4.00
2018-03-08T11:22:10.942Z,2.60
2018-03-08T11:23:11.001Z,2.10
2018-03-08T11:24:11.063Z,1.80
2018-03-08T11:25:11.120Z,2.60
2018-03-08T11:26:11.180Z,3.20
2018-03-08T11:27:11.239Z,3.70
2018-03-08T11:28:11.298Z,2.00
2018-03-08T11:29:11.357Z,3.90
2018-03-08T11:30:12.087Z,2.30
2018-03-08T11:31:12.189Z,1.20
2018-03-08T11:32:11.534Z,2.90
2018-03-08T11:33:11.593Z,2.80
2018-03-08T11:34:11.652Z,3.20
2018-03-08T11:35:11.860Z,7.00
2018-03-08T11:36:11.773Z,3.20
2018-03-08T11:37:11.829Z,3.10
2018-03-08T11:38:11.895Z,2.80
2018-03-08T11:39:11.954Z,4.90
2018-03-08T11:40:12.007Z,4.60
2018-03-08T11:41:12.064Z,3.80
2018-03-08T11:42:12.751Z,3.40
2018-03-08T11:43:12.183Z,5.00
2018-03-08T11:44:12.247Z,1.80
2018-03-08T11:45:12.303Z,5.40
2018-03-08T11:46:12.364Z,4.10
2018-03-08T11:47:12.422Z,1.70
2018-03-08T11:48:12.481Z,1.80
2018-03-08T11:49:12.542Z,3.80
2018-03-08T11:50:12.746Z,6.50
2018-03-08T11:51:12.660Z,2.60
2018-03-08T11:52:14.341Z,2.20
2018-03-08T11:53:12.782Z,3.30
2018-03-08T11:54:12.841Z,3.30
2018-03-08T11:55:12.901Z,4.40
2018-03-08T11:56:12.961Z,3.30
2018-03-08T11:57:13.020Z,2.70
2018-03-08T11:58:13.080Z,3.60
2018-03-08T11:59:13.140Z,3.60
2018-03-08T12:00:13.223Z,4.20
2018-03-08T12:01:13.264Z,6.70
2018-03-08T12:02:13.652Z,5.60
2018-03-08T12:03:13.381Z,3.60
2018-03-08T12:04:13.445Z,5.50
2018-03-08T12:05:13.505Z,6.50
2018-03-08T12:06:13.563Z,6.00
2018-03-08T12:07:13.660Z,3.70
2018-03-08T12:08:13.682Z,4.40
2018-03-08T12:09:13.746Z,5.80
2018-03-08T12:10:13.804Z,5.20
2018-03-08T12:11:13.865Z,5.00
2018-03-08T12:12:13.925Z,3.40
2018-03-08T12:13:13.984Z,3.10
2018-03-08T12:14:14.045Z,3.10
2018-03-08T12:15:14.108Z,3.60
2018-03-08T12:16:14.167Z,3.30
2018-03-08T12:17:14.228Z,5.80
2018-03-08T12:18:14.289Z,6.20
2018-03-08T12:19:14.351Z,2.40
2018-03-08T12:20:14.409Z,5.70
2018-03-08T12:21:14.470Z,3.70
2018-03-08T12:22:14.531Z,5.30
2018-03-08T12:23:14.590Z,4.30
2018-03-08T12:24:14.650Z,4.00
2018-03-08T12:25:14.711Z,4.40
2018-03-08T12:26:14.771Z,3.20
2018-03-08T12:27:14.830Z,3.10
2018-03-08T12:28:14.892Z,5.00
2018-03-08T12:29:14.954Z,3.50
2018-03-08T12:30:15.015Z,5.50
2018-03-08T12:31:15.073Z,3.10
2018-03-08T12:32:15.135Z,2.40
2018-03-08T12:33:15.200Z,2.20
2018-03-08T12:34:15.256Z,3.10
2018-03-08T12:35:15.317Z,3.10
2018-03-08T12:36:34.582Z,2.20
2018-03-08T12:37:15.439Z,3.90
2018-03-08T12:38:15.499Z,1.80
2018-03-08T12:39:15.559Z,3.40
2018-03-08T12:40:15.619Z,2.40
2018-03-08T12:41:15.693Z,3.60
2018-03-08T12:42:16.370Z,2.10
2018-03-08T12:43:15.799Z,4.20
2018-03-08T12:44:15.860Z,4.30
2018-03-08T12:45:15.920Z,3.80
2018-03-08T12:46:15.980Z,3.80
2018-03-08T12:47:16.040Z,3.80
2018-03-08T12:48:16.099Z,2.50
2018-03-08T12:49:16.161Z,4.00
2018-03-08T12:50:16.221Z,6.80
2018-03-08T12:51:16.280Z,2.80
2018-03-08T12:52:16.340Z,4.70
2018-03-08T12:53:16.399Z,3.20
2018-03-08T12:54:16.460Z,1.70
2018-03-08T12:55:16.518Z,2.40
2018-03-08T12:56:16.580Z,3.90
2018-03-08T12:57:16.662Z,3.90
2018-03-08T12:58:16.700Z,4.50
2018-03-08T12:59:16.761Z,3.10
2018-03-08T13:00:16.818Z,6.20
2018-03-08T13:01:16.878Z,3.80
2018-03-08T13:02:16.938Z,4.00
2018-03-08T13:03:16.996Z,6.20
2018-03-08T13:04:17.060Z,3.50
2018-03-08T13:05:17.117Z,6.20
2018-03-08T13:06:17.177Z,2.20
2018-03-08T13:07:17.235Z,3.20
2018-03-08T13:08:17.295Z,4.20
2018-03-08T13:09:17.356Z,4.90
2018-03-08T13:10:17.415Z,6.20
2018-03-08T13:11:17.475Z,4.80
2018-03-08T13:12:17.534Z,2.40
2018-03-08T13:13:17.593Z,3.90